Time;durP1;ratioP1;P1;durP2;ratioP2;P2;SDS_P1;SDS_P2;PMS_P1;PMS_P2;Temp;Humidity;BMP_temperature;BMP_pressure;BME280_temperature;BME280_humidity;BME280_pressure;Samples;Min_cycle;Max_cycle;Signal;HPM_P1;HPM_P2
2023/03/12 00:04:39;;;;;;;2.47;0.60;;;;;;;;;;10367823;28;20247;-76
2023/03/12 00:09:40;;;;;;;1.55;0.65;;;;;;;;;;10346436;28;20211;-76
2023/03/12 00:14:41;;;;;;;2.90;0.65;;;;;;;;;;10332103;28;20783;-79
2023/03/12 00:19:42;;;;;;;3.70;0.80;;;;;;;;;;10364877;28;20243;-77
2023/03/12 00:24:43;;;;;;;0.60;0.60;;;;;;;;;;10349651;28;20219;-78
2023/03/12 00:29:44;;;;;;;0.93;0.70;;;;;;;;;;10354998;28;20247;-77
2023/03/12 00:34:49;;;;;;;0.80;0.80;;;;;;;;;;10348025;28;20220;-77
2023/03/12 00:39:51;;;;;;;0.60;0.60;;;;;;;;;;10359300;28;20257;-78
2023/03/12 00:44:52;;;;;;;0.57;0.50;;;;;;;;;;10369215;28;20251;-77
2023/03/12 00:49:53;;;;;;;1.00;0.68;;;;;;;;;;10340513;28;20215;-77
2023/03/12 00:54:57;;;;;;;3.03;0.60;;;;;;;;;;10347517;28;20223;-77
2023/03/12 00:59:58;;;;;;;2.30;0.50;;;;;;;;;;10333163;28;20230;-77
2023/03/12 01:04:59;;;;;;;0.52;0.52;;;;;;;;;;10344587;28;20242;-78
2023/03/12 01:10:00;;;;;;;0.50;0.50;;;;;;;;;;10364200;28;20227;-79
2023/03/12 01:15:02;;;;;;;0.60;0.60;;;;;;;;;;10359313;28;20994;-78
2023/03/12 01:20:04;;;;;;;0.40;0.40;;;;;;;;;;10357281;28;20230;-79
2023/03/12 01:25:05;;;;;;;1.30;0.50;;;;;;;;;;10338435;28;20227;-76
2023/03/12 01:30:07;;;;;;;0.85;0.60;;;;;;;;;;10371510;28;20231;-78
2023/03/12 01:35:08;;;;;;;0.65;0.60;;;;;;;;;;10372827;28;20187;-78
2023/03/12 01:40:13;;;;;;;0.47;0.40;;;;;;;;;;10343611;28;20841;-79
2023/03/12 01:45:33;;;;;;;0.40;0.40;;;;;;;;;;10347472;28;20224;-75
2023/03/12 01:50:34;;;;;;;1.15;0.52;;;;;;;;;;10368947;28;20306;-75
2023/03/12 01:55:36;;;;;;;0.63;0.28;;;;;;;;;;10340439;28;20222;-79
2023/03/12 02:00:37;;;;;;;0.75;0.40;;;;;;;;;;10366445;28;20227;-76
2023/03/12 02:05:43;;;;;;;1.07;0.20;;;;;;;;;;10365556;28;20235;-78
2023/03/12 02:10:44;;;;;;;0.35;0.30;;;;;;;;;;10342008;28;20346;-77
2023/03/12 02:15:45;;;;;;;2.00;0.30;;;;;;;;;;10344067;28;20879;-78
2023/03/12 02:21:05;;;;;;;0.38;0.38;;;;;;;;;;10334928;28;20224;-79
2023/03/12 02:26:07;;;;;;;0.75;0.50;;;;;;;;;;10343298;28;20338;-75
2023/03/12 02:31:12;;;;;;;0.73;0.40;;;;;;;;;;10339183;28;20317;-75
2023/03/12 02:36:13;;;;;;;0.40;0.40;;;;;;;;;;10323847;28;20224;-80
2023/03/12 02:41:14;;;;;;;0.75;0.40;;;;;;;;;;10333756;28;20318;-74
2023/03/12 02:46:16;;;;;;;0.67;0.37;;;;;;;;;;10344256;28;20227;-75
2023/03/12 02:51:17;;;;;;;1.98;0.50;;;;;;;;;;10327152;28;20224;-77
2023/03/12 02:56:18;;;;;;;1.08;0.55;;;;;;;;;;10346739;28;20215;-76
2023/03/12 03:01:19;;;;;;;0.40;0.40;;;;;;;;;;10342285;28;20254;-75
2023/03/12 03:06:21;;;;;;;1.73;0.30;;;;;;;;;;10325518;28;20329;-77
2023/03/12 03:11:25;;;;;;;1.50;0.50;;;;;;;;;;10336982;28;20253;-77
2023/03/12 03:16:29;;;;;;;1.20;0.63;;;;;;;;;;10331365;28;20754;-76
2023/03/12 03:21:30;;;;;;;1.10;0.40;;;;;;;;;;10360723;28;20223;-76
2023/03/12 03:26:31;;;;;;;0.30;0.30;;;;;;;;;;10324083;28;20235;-78
2023/03/12 03:31:32;;;;;;;0.65;0.65;;;;;;;;;;10333759;28;20346;-77
2023/03/12 03:36:34;;;;;;;1.55;0.25;;;;;;;;;;10334987;28;20322;-76
2023/03/12 03:41:45;;;;;;;0.20;0.20;;;;;;;;;;10349897;28;21131;-76
2023/03/12 03:46:46;;;;;;;0.52;0.35;;;;;;;;;;10336441;28;20223;-78
2023/03/12 03:51:50;;;;;;;0.40;0.40;;;;;;;;;;10349359;28;20216;-77
2023/03/12 03:56:55;;;;;;;0.40;0.40;;;;;;;;;;10350251;28;20307;-76
2023/03/12 04:01:57;;;;;;;0.40;0.40;;;;;;;;;;10336590;28;20255;-77
2023/03/12 04:06:59;;;;;;;1.33;0.60;;;;;;;;;;10351821;28;20318;-78
2023/03/12 04:12:00;;;;;;;0.60;0.60;;;;;;;;;;10349476;28;20269;-76
2023/03/12 04:17:01;;;;;;;0.50;0.30;;;;;;;;;;10331755;28;20220;-77
2023/03/12 04:22:02;;;;;;;3.43;0.57;;;;;;;;;;10334984;28;20223;-78
2023/03/12 04:27:04;;;;;;;1.80;0.43;;;;;;;;;;10358879;28;20224;-78
2023/03/12 04:32:07;;;;;;;0.60;0.60;;;;;;;;;;10363436;28;20413;-75
2023/03/12 04:37:12;;;;;;;1.17;0.93;;;;;;;;;;10352273;28;20224;-77
2023/03/12 04:42:14;;;;;;;0.30;0.30;;;;;;;;;;10349733;28;20286;-77
2023/03/12 04:47:17;;;;;;;3.30;0.30;;;;;;;;;;10352890;28;20290;-76
2023/03/12 04:52:19;;;;;;;0.47;0.30;;;;;;;;;;10356077;28;20224;-78
2023/03/12 04:57:21;;;;;;;0.87;0.20;;;;;;;;;;10379997;28;23922;-78
2023/03/12 05:02:22;;;;;;;1.00;0.43;;;;;;;;;;10354995;28;20750;-78
2023/03/12 05:07:23;;;;;;;0.50;0.23;;;;;;;;;;10359538;28;20869;-77
2023/03/12 05:12:25;;;;;;;0.23;0.23;;;;;;;;;;10349959;28;20235;-78
2023/03/12 05:17:26;;;;;;;0.30;0.30;;;;;;;;;;10369112;28;20231;-78
2023/03/12 05:22:27;;;;;;;0.20;0.20;;;;;;;;;;10337838;28;20234;-76
2023/03/12 05:27:28;;;;;;;3.07;0.20;;;;;;;;;;10346722;28;20227;-75
2023/03/12 05:32:30;;;;;;;0.27;0.27;;;;;;;;;;10348988;28;20729;-79
2023/03/12 05:37:31;;;;;;;0.30;0.30;;;;;;;;;;10345667;28;20254;-76
2023/03/12 05:42:33;;;;;;;2.73;0.40;;;;;;;;;;10349130;28;20218;-78
2023/03/12 05:47:35;;;;;;;0.37;0.27;;;;;;;;;;10321910;28;20962;-77
2023/03/12 05:52:36;;;;;;;3.20;0.20;;;;;;;;;;10327166;28;20224;-76
2023/03/12 05:57:38;;;;;;;1.03;0.33;;;;;;;;;;10348783;28;20223;-78
2023/03/12 06:02:39;;;;;;;0.50;0.30;;;;;;;;;;10341432;28;20219;-75
2023/03/12 06:07:41;;;;;;;1.05;0.70;;;;;;;;;;10339711;28;20223;-80
2023/03/12 06:12:42;;;;;;;0.40;0.40;;;;;;;;;;10360792;28;20208;-75
2023/03/12 06:17:43;;;;;;;0.40;0.40;;;;;;;;;;10332456;28;20230;-80
2023/03/12 06:22:45;;;;;;;1.53;0.60;;;;;;;;;;10338003;28;20220;-77
2023/03/12 06:27:46;;;;;;;1.30;0.60;;;;;;;;;;10322370;28;20228;-79
2023/03/12 06:32:47;;;;;;;0.47;0.47;;;;;;;;;;10358784;28;20267;-79
2023/03/12 06:37:48;;;;;;;1.97;0.50;;;;;;;;;;10321135;28;20258;-79
2023/03/12 06:43:15;;;;;;;0.50;0.50;;;;;;;;;;10347636;28;20238;-76
2023/03/12 06:48:41;;;;;;;0.60;0.60;;;;;;;;;;10320966;28;20713;-80
2023/03/12 06:53:42;;;;;;;0.68;0.68;;;;;;;;;;10343211;28;20303;-77
2023/03/12 06:58:42;;;;;;;1.02;0.88;;;;;;;;;;10345227;28;20376;-77
2023/03/12 07:03:44;;;;;;;0.55;0.55;;;;;;;;;;10348306;28;20298;-78
2023/03/12 07:08:45;;;;;;;0.60;0.60;;;;;;;;;;10356171;28;20225;-77
2023/03/12 07:13:46;;;;;;;1.92;1.15;;;;;;;;;;10358768;28;20959;-79
2023/03/12 07:18:47;;;;;;;0.77;0.77;;;;;;;;;;10341774;28;20273;-79
2023/03/12 07:23:48;;;;;;;0.80;0.80;;;;;;;;;;10337377;28;20621;-78
2023/03/12 07:28:49;;;;;;;0.80;0.80;;;;;;;;;;10338023;28;20799;-78
2023/03/12 07:33:50;;;;;;;1.15;0.52;;;;;;;;;;10361238;28;20220;-82
2023/03/12 07:38:51;;;;;;;2.38;0.70;;;;;;;;;;10332375;28;20274;-81
2023/03/12 07:43:52;;;;;;;0.70;0.70;;;;;;;;;;10350604;28;20226;-83
2023/03/12 07:48:53;;;;;;;0.68;0.68;;;;;;;;;;10357534;28;20211;-82
2023/03/12 07:53:54;;;;;;;0.70;0.70;;;;;;;;;;10347406;28;20345;-80
2023/03/12 07:58:55;;;;;;;1.38;0.90;;;;;;;;;;10384746;28;20229;-80
2023/03/12 08:04:01;;;;;;;0.82;0.82;;;;;;;;;;10358669;28;20223;-81
2023/03/12 08:09:02;;;;;;;0.80;0.80;;;;;;;;;;10365784;28;20311;-82
2023/03/12 08:14:03;;;;;;;1.23;0.60;;;;;;;;;;10358029;28;20219;-82
2023/03/12 08:19:05;;;;;;;1.20;0.70;;;;;;;;;;10374646;28;20226;-81
2023/03/12 08:24:06;;;;;;;2.05;1.10;;;;;;;;;;10343608;28;20927;-78
2023/03/12 08:29:07;;;;;;;0.73;0.73;;;;;;;;;;10373390;28;20336;-81
2023/03/12 08:34:08;;;;;;;0.80;0.80;;;;;;;;;;10354648;28;20215;-80
2023/03/12 08:39:09;;;;;;;1.95;0.90;;;;;;;;;;10354682;28;20251;-82
2023/03/12 08:44:10;;;;;;;8.77;1.27;;;;;;;;;;10357143;28;20219;-81
2023/03/12 08:49:11;;;;;;;0.68;0.68;;;;;;;;;;10331368;28;20215;-81
2023/03/12 08:54:12;;;;;;;0.73;0.60;;;;;;;;;;10339803;28;20223;-80
2023/03/12 08:59:13;;;;;;;1.27;0.90;;;;;;;;;;10362718;28;20226;-81
2023/03/12 09:04:15;;;;;;;3.05;0.82;;;;;;;;;;10313922;28;20919;-76
2023/03/12 09:09:19;;;;;;;1.05;0.70;;;;;;;;;;10348782;28;20318;-77
2023/03/12 09:14:20;;;;;;;1.60;0.73;;;;;;;;;;10357327;28;20223;-76
2023/03/12 09:19:21;;;;;;;0.60;0.60;;;;;;;;;;10348300;28;21037;-77
2023/03/12 09:24:22;;;;;;;1.88;0.70;;;;;;;;;;10345501;28;20223;-77
2023/03/12 09:29:23;;;;;;;0.55;0.55;;;;;;;;;;10340754;28;20243;-76
2023/03/12 09:34:25;;;;;;;1.15;0.50;;;;;;;;;;10340814;28;20223;-73
2023/03/12 09:39:26;;;;;;;3.72;0.60;;;;;;;;;;10352979;28;20224;-77
2023/03/12 09:44:29;;;;;;;1.75;0.70;;;;;;;;;;10364792;28;20230;-75
2023/03/12 09:49:35;;;;;;;0.57;0.57;;;;;;;;;;10353643;28;20215;-76
2023/03/12 09:54:41;;;;;;;0.73;0.60;;;;;;;;;;10344976;28;20220;-75
2023/03/12 09:59:42;;;;;;;0.40;0.40;;;;;;;;;;10349958;28;20219;-76
2023/03/12 10:04:49;;;;;;;0.60;0.60;;;;;;;;;;10368506;28;20971;-76
2023/03/12 10:10:09;;;;;;;1.40;0.63;;;;;;;;;;10337175;28;20224;-79
2023/03/12 10:15:31;;;;;;;0.60;0.60;;;;;;;;;;10348388;28;20246;-78
2023/03/12 10:20:40;;;;;;;1.52;0.70;;;;;;;;;;10340472;28;20219;-77
2023/03/12 10:25:46;;;;;;;0.60;0.60;;;;;;;;;;10349196;28;20235;-80
2023/03/12 10:30:51;;;;;;;2.58;0.70;;;;;;;;;;10347651;28;20220;-80
2023/03/12 10:35:53;;;;;;;2.83;0.60;;;;;;;;;;10355271;28;20275;-78
2023/03/12 10:40:54;;;;;;;0.60;0.60;;;;;;;;;;10359379;28;20230;-77
2023/03/12 10:46:21;;;;;;;0.60;0.60;;;;;;;;;;10363719;28;20327;-78
2023/03/12 10:51:22;;;;;;;2.08;0.77;;;;;;;;;;10341759;28;20231;-76
2023/03/12 10:56:23;;;;;;;1.20;0.63;;;;;;;;;;10351180;28;20723;-78
2023/03/12 11:01:26;;;;;;;0.75;0.70;;;;;;;;;;10332836;28;20227;-77
2023/03/12 11:06:28;;;;;;;2.92;0.80;;;;;;;;;;10350648;28;20729;-79
2023/03/12 11:11:33;;;;;;;1.52;0.70;;;;;;;;;;10350959;28;20242;-77
2023/03/12 11:16:34;;;;;;;2.63;1.50;;;;;;;;;;10348992;28;20309;-78
2023/03/12 11:21:37;;;;;;;3.33;1.70;;;;;;;;;;10361562;28;20328;-78
2023/03/12 11:26:43;;;;;;;2.80;0.95;;;;;;;;;;10332970;28;20227;-78
2023/03/12 11:31:48;;;;;;;0.90;0.75;;;;;;;;;;10324412;28;20258;-77
2023/03/12 11:37:03;;;;;;;1.27;1.13;;;;;;;;;;10321082;28;20228;-78
2023/03/12 11:42:23;;;;;;;1.77;1.65;;;;;;;;;;10366705;28;20345;-77
2023/03/12 11:47:47;;;;;;;0.80;0.80;;;;;;;;;;10340427;28;20308;-78
2023/03/12 11:52:57;;;;;;;1.48;0.90;;;;;;;;;;10347110;28;20246;-79
2023/03/12 11:58:12;;;;;;;1.05;0.57;;;;;;;;;;10364847;28;20327;-76
2023/03/12 12:03:26;;;;;;;2.22;1.10;;;;;;;;;;10349358;28;20219;-77
2023/03/12 12:09:00;;;;;;;1.48;1.00;;;;;;;;;;10342224;28;20240;-77
2023/03/12 12:14:07;;;;;;;1.48;0.63;;;;;;;;;;10281803;28;20220;-78
2023/03/12 12:19:27;;;;;;;0.70;0.70;;;;;;;;;;10364655;28;21013;-79
2023/03/12 12:24:46;;;;;;;1.38;0.90;;;;;;;;;;10339357;28;20315;-77
2023/03/12 12:29:55;;;;;;;2.80;0.73;;;;;;;;;;10348383;28;20219;-75
2023/03/12 12:35:03;;;;;;;0.82;0.50;;;;;;;;;;10349518;28;20219;-80
2023/03/12 12:40:16;;;;;;;1.35;0.60;;;;;;;;;;10327743;28;20226;-77
2023/03/12 12:45:17;;;;;;;1.27;0.50;;;;;;;;;;10346935;28;20212;-78
2023/03/12 12:50:20;;;;;;;1.20;0.50;;;;;;;;;;10337814;28;20203;-78
2023/03/12 12:55:24;;;;;;;0.30;0.30;;;;;;;;;;10352988;28;20676;-76
2023/03/12 13:00:45;;;;;;;1.27;0.40;;;;;;;;;;10368728;28;20227;-76
2023/03/12 13:05:56;;;;;;;0.40;0.40;;;;;;;;;;10353878;28;20259;-77
2023/03/12 13:10:57;;;;;;;1.85;0.40;;;;;;;;;;10337707;28;20320;-77
2023/03/12 13:16:16;;;;;;;0.40;0.40;;;;;;;;;;10347849;28;20218;-76
2023/03/12 13:21:22;;;;;;;0.50;0.50;;;;;;;;;;10371056;28;20227;-73
2023/03/12 13:26:26;;;;;;;0.90;0.60;;;;;;;;;;10351500;28;21075;-76
2023/03/12 13:31:27;;;;;;;3.17;0.80;;;;;;;;;;10346234;28;20242;-76
2023/03/12 13:36:29;;;;;;;0.80;0.80;;;;;;;;;;10375504;28;20219;-74
2023/03/12 13:41:37;;;;;;;1.05;1.00;;;;;;;;;;10324873;28;20230;-75
2023/03/12 13:46:40;;;;;;;0.60;0.60;;;;;;;;;;10367379;28;20231;-77
2023/03/12 13:51:54;;;;;;;2.30;0.90;;;;;;;;;;10365248;28;20228;-76
2023/03/12 13:56:59;;;;;;;0.90;0.90;;;;;;;;;;10365734;28;20247;-75
2023/03/12 14:02:04;;;;;;;1.17;0.60;;;;;;;;;;10351572;28;20227;-77
2023/03/12 14:07:17;;;;;;;1.60;0.80;;;;;;;;;;10348435;28;20239;-75
2023/03/12 14:12:27;;;;;;;0.80;0.80;;;;;;;;;;10358389;28;20736;-78
2023/03/12 14:17:30;;;;;;;1.67;0.80;;;;;;;;;;10353942;28;20224;-73
2023/03/12 14:22:33;;;;;;;3.90;0.80;;;;;;;;;;10342310;28;21644;-77
2023/03/12 14:27:35;;;;;;;1.15;0.80;;;;;;;;;;10344273;28;20228;-77
2023/03/12 14:32:37;;;;;;;0.90;0.90;;;;;;;;;;10319885;28;20219;-78
2023/03/12 14:37:40;;;;;;;2.90;1.75;;;;;;;;;;10364708;28;20576;-77
2023/03/12 14:42:41;;;;;;;1.08;1.08;;;;;;;;;;10349572;28;20226;-78
2023/03/12 14:47:44;;;;;;;2.28;0.90;;;;;;;;;;10328411;28;20285;-79
2023/03/12 14:52:45;;;;;;;0.93;0.85;;;;;;;;;;10347801;28;20250;-78
2023/03/12 14:57:46;;;;;;;3.25;1.52;;;;;;;;;;10366311;28;20281;-77
2023/03/12 15:02:47;;;;;;;1.42;1.33;;;;;;;;;;10336846;28;20227;-78
2023/03/12 15:07:48;;;;;;;3.78;1.63;;;;;;;;;;10340879;28;20250;-78
2023/03/12 15:12:50;;;;;;;2.83;1.90;;;;;;;;;;10331263;28;20342;-78
2023/03/12 15:17:51;;;;;;;2.15;2.05;;;;;;;;;;10340912;28;20736;-78
2023/03/12 15:22:53;;;;;;;2.60;2.45;;;;;;;;;;10334627;28;20226;-77
2023/03/12 15:28:22;;;;;;;2.15;1.98;;;;;;;;;;10351814;28;20268;-78
2023/03/12 15:33:24;;;;;;;3.03;2.83;;;;;;;;;;10340692;28;20223;-78
2023/03/12 15:38:25;;;;;;;3.08;2.80;;;;;;;;;;10349591;28;20231;-77
2023/03/12 15:43:26;;;;;;;2.42;2.15;;;;;;;;;;10351249;28;20306;-79
2023/03/12 15:48:29;;;;;;;2.60;2.38;;;;;;;;;;10343010;28;20646;-77
2023/03/12 15:53:33;;;;;;;2.53;2.33;;;;;;;;;;10331926;28;20310;-79
2023/03/12 15:58:38;;;;;;;1.52;1.50;;;;;;;;;;10351267;28;20399;-79
2023/03/12 16:03:40;;;;;;;3.83;3.50;;;;;;;;;;10345868;28;21015;-78
2023/03/12 16:08:52;;;;;;;3.30;3.10;;;;;;;;;;10353678;28;20245;-79
2023/03/12 16:14:01;;;;;;;4.30;3.75;;;;;;;;;;10347020;28;20247;-75
2023/03/12 16:19:02;;;;;;;4.50;2.88;;;;;;;;;;10345404;28;20333;-80
2023/03/12 16:24:03;;;;;;;3.88;3.13;;;;;;;;;;10357516;28;20375;-79
2023/03/12 16:29:04;;;;;;;3.15;2.90;;;;;;;;;;10346947;28;20242;-79
2023/03/12 16:34:05;;;;;;;1.70;1.70;;;;;;;;;;10362023;28;20713;-79
2023/03/12 16:39:06;;;;;;;2.40;1.27;;;;;;;;;;10344936;28;20326;-80
2023/03/12 16:44:12;;;;;;;1.50;1.50;;;;;;;;;;10351574;28;20638;-82
2023/03/12 16:49:18;;;;;;;1.20;1.20;;;;;;;;;;10371229;28;20690;-83
2023/03/12 16:54:19;;;;;;;1.65;1.55;;;;;;;;;;10340877;28;20212;-82
2023/03/12 16:59:25;;;;;;;1.55;1.55;;;;;;;;;;10353384;28;20884;-83
2023/03/12 17:04:27;;;;;;;2.17;1.48;;;;;;;;;;10335328;28;20250;-82
2023/03/12 17:09:27;;;;;;;1.73;1.70;;;;;;;;;;10327798;28;20221;-82
2023/03/12 17:14:29;;;;;;;2.25;2.05;;;;;;;;;;10336834;28;20219;-83
2023/03/12 17:19:30;;;;;;;1.48;1.48;;;;;;;;;;10343344;28;20292;-82
2023/03/12 17:24:31;;;;;;;1.70;1.60;;;;;;;;;;10358575;28;20219;-80
2023/03/12 17:29:32;;;;;;;1.50;1.45;;;;;;;;;;10370796;28;20358;-80
2023/03/12 17:34:33;;;;;;;1.80;1.48;;;;;;;;;;10338527;28;20235;-81
2023/03/12 17:39:35;;;;;;;2.50;2.30;;;;;;;;;;10354501;28;20231;-82
2023/03/12 17:44:37;;;;;;;1.58;1.58;;;;;;;;;;10348450;28;20223;-81
2023/03/12 17:49:38;;;;;;;1.95;1.85;;;;;;;;;;10352247;28;20219;-82
2023/03/12 17:54:39;;;;;;;1.92;1.83;;;;;;;;;;10351135;28;20266;-79
2023/03/12 17:59:40;;;;;;;1.40;1.40;;;;;;;;;;10348909;28;20249;-82
2023/03/12 18:04:41;;;;;;;1.40;1.40;;;;;;;;;;10355404;28;20234;-80
2023/03/12 18:09:43;;;;;;;0.80;0.80;;;;;;;;;;10338832;28;20795;-78
2023/03/12 18:14:44;;;;;;;1.30;1.23;;;;;;;;;;10339322;28;20259;-79
2023/03/12 18:19:45;;;;;;;1.02;1.02;;;;;;;;;;10350569;28;20232;-80
2023/03/12 18:24:46;;;;;;;1.52;1.42;;;;;;;;;;10347109;28;20226;-80
2023/03/12 18:29:47;;;;;;;1.15;1.10;;;;;;;;;;10331821;28;20227;-79
2023/03/12 18:34:48;;;;;;;1.83;1.73;;;;;;;;;;10333623;28;20753;-79
2023/03/12 18:39:49;;;;;;;1.55;1.45;;;;;;;;;;10327801;28;20224;-77
2023/03/12 18:44:50;;;;;;;1.15;1.10;;;;;;;;;;10344668;28;20231;-78
2023/03/12 18:49:53;;;;;;;1.17;1.10;;;;;;;;;;10349515;28;20823;-79
2023/03/12 18:54:54;;;;;;;1.20;1.20;;;;;;;;;;10362976;28;20382;-76
2023/03/12 18:59:55;;;;;;;0.90;0.90;;;;;;;;;;10362470;28;20285;-80
2023/03/12 19:04:57;;;;;;;1.40;1.30;;;;;;;;;;10358948;28;20223;-79
2023/03/12 19:09:58;;;;;;;1.23;1.13;;;;;;;;;;10351197;28;20222;-79
2023/03/12 19:14:59;;;;;;;1.10;1.10;;;;;;;;;;10353542;28;20281;-78
2023/03/12 19:20:00;;;;;;;1.38;1.27;;;;;;;;;;10339687;28;20219;-81
2023/03/12 19:25:01;;;;;;;1.60;1.48;;;;;;;;;;10340802;28;20235;-79
2023/03/12 19:30:03;;;;;;;1.95;1.83;;;;;;;;;;10341948;28;20236;-79
2023/03/12 19:35:04;;;;;;;1.05;1.02;;;;;;;;;;10349417;28;20202;-82
2023/03/12 19:40:05;;;;;;;1.75;1.65;;;;;;;;;;10368826;28;20346;-78
2023/03/12 19:45:07;;;;;;;4.18;2.15;;;;;;;;;;10355982;28;20224;-78
2023/03/12 19:50:09;;;;;;;4.97;2.53;;;;;;;;;;10335780;28;20387;-80
2023/03/12 19:55:10;;;;;;;1.63;1.63;;;;;;;;;;10314298;28;20305;-77
2023/03/12 20:00:11;;;;;;;2.95;2.13;;;;;;;;;;10354607;28;20223;-80
2023/03/12 20:05:13;;;;;;;2.88;2.67;;;;;;;;;;10342753;28;20222;-79
2023/03/12 20:10:14;;;;;;;2.40;2.05;;;;;;;;;;10320647;28;20211;-79
2023/03/12 20:15:15;;;;;;;4.47;2.45;;;;;;;;;;10342311;28;20204;-79
2023/03/12 20:20:16;;;;;;;2.95;2.75;;;;;;;;;;10340042;28;20219;-81
2023/03/12 20:25:17;;;;;;;2.90;2.33;;;;;;;;;;10328552;28;20230;-80
2023/03/12 20:30:18;;;;;;;2.60;2.35;;;;;;;;;;10344753;28;20793;-79
2023/03/12 20:35:19;;;;;;;2.90;2.67;;;;;;;;;;10322776;28;20242;-80
2023/03/12 20:40:20;;;;;;;4.13;2.90;;;;;;;;;;10339431;28;20273;-79
2023/03/12 20:45:21;;;;;;;3.63;2.58;;;;;;;;;;10348374;28;21191;-80
2023/03/12 20:50:22;;;;;;;2.80;2.45;;;;;;;;;;10356851;28;20865;-81
2023/03/12 20:55:23;;;;;;;9.40;3.80;;;;;;;;;;10357160;28;20215;-77
2023/03/12 21:00:24;;;;;;;4.32;3.30;;;;;;;;;;10343588;28;20377;-77
2023/03/12 21:05:26;;;;;;;2.42;2.33;;;;;;;;;;10348949;28;20228;-77
2023/03/12 21:10:27;;;;;;;5.55;3.35;;;;;;;;;;10340876;28;20963;-77
2023/03/12 21:15:28;;;;;;;4.45;3.63;;;;;;;;;;10349553;28;20760;-76
2023/03/12 21:20:29;;;;;;;4.32;3.05;;;;;;;;;;10344214;28;20220;-77
2023/03/12 21:25:34;;;;;;;3.03;2.83;;;;;;;;;;10350658;28;20227;-77
2023/03/12 21:30:35;;;;;;;4.07;2.67;;;;;;;;;;10374649;28;20259;-76
2023/03/12 21:35:36;;;;;;;5.43;2.80;;;;;;;;;;10345174;28;20487;-77
2023/03/12 21:40:37;;;;;;;4.95;3.40;;;;;;;;;;10343267;28;20277;-78
2023/03/12 21:45:40;;;;;;;4.68;3.00;;;;;;;;;;10366713;28;20243;-78
2023/03/12 21:50:41;;;;;;;3.10;2.88;;;;;;;;;;10350634;28;20223;-77
2023/03/12 21:55:42;;;;;;;11.38;3.90;;;;;;;;;;10344049;28;20234;-77
2023/03/12 22:00:43;;;;;;;3.85;3.40;;;;;;;;;;10353309;28;20219;-76
2023/03/12 22:05:49;;;;;;;9.23;4.22;;;;;;;;;;10350414;28;20227;-77
2023/03/12 22:10:51;;;;;;;11.07;4.75;;;;;;;;;;10353687;28;20232;-77
2023/03/12 22:15:53;;;;;;;3.92;3.15;;;;;;;;;;10379823;28;20314;-77
2023/03/12 22:20:55;;;;;;;4.15;3.75;;;;;;;;;;10349275;28;20225;-76
2023/03/12 22:25:59;;;;;;;8.18;3.92;;;;;;;;;;10347925;28;20238;-77
2023/03/12 22:31:01;;;;;;;4.57;3.78;;;;;;;;;;10360425;28;20251;-75
2023/03/12 22:36:06;;;;;;;4.25;3.72;;;;;;;;;;10358444;28;20315;-78
2023/03/12 22:41:10;;;;;;;5.75;3.28;;;;;;;;;;10346736;28;20860;-76
2023/03/12 22:46:11;;;;;;;5.35;3.97;;;;;;;;;;10348738;28;20250;-77
2023/03/12 22:51:12;;;;;;;4.00;2.97;;;;;;;;;;10359666;28;21025;-78
2023/03/12 22:56:13;;;;;;;5.22;3.25;;;;;;;;;;10366355;28;20336;-79
2023/03/12 23:01:19;;;;;;;5.35;2.90;;;;;;;;;;10350554;28;20259;-75
2023/03/12 23:06:21;;;;;;;7.65;3.55;;;;;;;;;;10365985;28;21537;-77
2023/03/12 23:11:24;;;;;;;5.68;2.80;;;;;;;;;;10349127;28;20603;-77
2023/03/12 23:16:25;;;;;;;5.68;2.80;;;;;;;;;;10342451;28;20307;-76
2023/03/12 23:21:26;;;;;;;5.25;2.83;;;;;;;;;;10336062;28;20223;-77
2023/03/12 23:26:27;;;;;;;4.82;3.45;;;;;;;;;;10351060;28;20242;-75
2023/03/12 23:31:28;;;;;;;6.30;2.67;;;;;;;;;;10342001;28;20234;-77
2023/03/12 23:36:30;;;;;;;3.90;2.88;;;;;;;;;;10365528;28;20215;-74
2023/03/12 23:41:31;;;;;;;6.25;2.45;;;;;;;;;;10333150;28;20760;-78
2023/03/12 23:46:32;;;;;;;6.95;3.15;;;;;;;;;;10344538;28;20226;-77
2023/03/12 23:51:33;;;;;;;8.88;2.75;;;;;;;;;;10342716;28;21132;-77
2023/03/12 23:56:36;;;;;;;3.70;2.30;;;;;;;;;;10337504;28;20230;-77
